createdAt,value
2023-04-16T00:00:22.008Z,8.75
2023-04-16T00:05:23.879Z,8.68
2023-04-16T00:10:25.657Z,8.69
2023-04-16T00:15:27.480Z,8.85
2023-04-16T00:20:29.214Z,9.00
2023-04-16T00:25:31.325Z,8.80
2023-04-16T00:30:33.097Z,8.80
2023-04-16T00:35:35.000Z,8.76
2023-04-16T00:40:36.740Z,8.67
2023-04-16T00:45:38.741Z,8.70
2023-04-16T00:50:40.640Z,8.66
2023-04-16T00:55:42.725Z,8.69
2023-04-16T01:00:44.470Z,8.75
2023-04-16T01:05:49.310Z,8.75
2023-04-16T01:10:51.044Z,8.78
2023-04-16T01:15:52.941Z,8.67
2023-04-16T01:20:54.681Z,8.72
2023-04-16T01:25:56.498Z,8.60
2023-04-16T01:30:58.318Z,8.58
2023-04-16T01:36:20.498Z,8.68
2023-04-16T01:41:22.636Z,8.59
2023-04-16T01:46:29.364Z,8.48
2023-04-16T01:51:32.203Z,8.50
2023-04-16T01:56:33.977Z,8.55
2023-04-16T02:01:35.815Z,8.45
2023-04-16T02:06:39.495Z,8.52
2023-04-16T02:11:41.229Z,8.58
2023-04-16T02:16:43.064Z,8.47
2023-04-16T02:21:53.276Z,8.55
2023-04-16T02:26:55.053Z,8.57
2023-04-16T02:31:56.975Z,8.54
2023-04-16T02:36:59.551Z,8.52
2023-04-16T02:42:02.782Z,8.54
2023-04-16T02:47:04.624Z,8.55
2023-04-16T02:52:06.406Z,8.55
2023-04-16T02:57:08.843Z,8.49
2023-04-16T03:02:10.833Z,8.67
2023-04-16T03:07:13.753Z,8.68
2023-04-16T03:12:15.514Z,8.63
2023-04-16T03:17:17.265Z,8.69
2023-04-16T03:22:19.115Z,8.57
2023-04-16T03:27:21.421Z,8.53
2023-04-16T03:32:23.377Z,8.40
2023-04-16T03:37:25.255Z,8.55
2023-04-16T03:42:27.277Z,8.56
2023-04-16T03:47:29.081Z,8.67
2023-04-16T03:52:34.833Z,8.61
2023-04-16T03:57:37.190Z,8.45
2023-04-16T04:02:45.026Z,8.13
2023-04-16T04:07:53.103Z,8.09
2023-04-16T04:12:54.914Z,8.13
2023-04-16T04:17:57.527Z,7.96
2023-04-16T04:22:59.400Z,7.95
2023-04-16T04:28:02.204Z,8.09
2023-04-16T04:33:04.177Z,8.18
2023-04-16T04:38:06.600Z,8.29
2023-04-16T04:43:09.119Z,8.19
2023-04-16T04:48:11.305Z,8.13
2023-04-16T04:53:14.963Z,8.27
2023-04-16T04:58:17.666Z,8.36
2023-04-16T05:03:24.004Z,8.21
2023-04-16T05:08:25.810Z,8.19
2023-04-16T05:13:27.577Z,8.20
2023-04-16T05:18:29.324Z,8.42
2023-04-16T05:23:31.173Z,8.36
2023-04-16T05:28:32.925Z,8.52
2023-04-16T05:33:34.812Z,8.56
2023-04-16T05:38:36.569Z,8.44
2023-04-16T05:43:38.304Z,8.44
2023-04-16T05:48:40.030Z,8.48
2023-04-16T05:53:42.153Z,8.59
2023-04-16T05:58:43.872Z,8.70
2023-04-16T06:03:45.855Z,8.81
2023-04-16T06:08:47.682Z,8.84
2023-04-16T06:13:49.461Z,8.83
2023-04-16T06:18:51.200Z,8.76
2023-04-16T06:23:52.993Z,8.81
2023-04-16T06:28:54.756Z,8.84
2023-04-16T06:33:56.791Z,8.76
2023-04-16T06:38:58.508Z,8.76
2023-04-16T06:44:00.287Z,8.76
2023-04-16T06:49:02.327Z,8.82
2023-04-16T06:54:04.242Z,9.02
2023-04-16T06:59:06.262Z,9.14
2023-04-16T07:04:08.233Z,9.38
2023-04-16T07:09:10.438Z,9.41
2023-04-16T07:14:12.356Z,9.55
2023-04-16T07:19:14.170Z,9.65
2023-04-16T07:24:16.185Z,9.53
2023-04-16T07:29:17.986Z,9.74
2023-04-16T07:34:20.023Z,10.06
2023-04-16T07:39:21.762Z,10.06
2023-04-16T07:44:23.612Z,10.05
2023-04-16T07:49:25.701Z,9.83
2023-04-16T07:54:28.937Z,9.73
2023-04-16T07:59:31.280Z,9.65
2023-04-16T08:04:33.275Z,9.75
2023-04-16T08:09:38.541Z,9.83
2023-04-16T08:14:41.324Z,9.61
2023-04-16T08:19:47.121Z,9.57
2023-04-16T08:24:48.914Z,9.56
2023-04-16T08:29:51.356Z,9.69
2023-04-16T08:34:53.226Z,9.72
2023-04-16T08:39:54.998Z,9.81
2023-04-16T08:45:08.948Z,9.85
2023-04-16T08:50:12.117Z,9.92
2023-04-16T08:55:16.981Z,9.84
2023-04-16T09:00:19.534Z,9.69
2023-04-16T09:05:25.690Z,9.73
2023-04-16T09:10:27.764Z,9.97
2023-04-16T09:15:29.653Z,9.95
2023-04-16T09:20:31.405Z,10.06
2023-04-16T09:25:38.619Z,10.21
2023-04-16T09:30:41.357Z,10.25
2023-04-16T09:35:51.284Z,10.24
2023-04-16T09:41:08.657Z,10.22
2023-04-16T09:46:12.871Z,10.34
2023-04-16T09:51:14.795Z,10.09
2023-04-16T09:56:16.776Z,10.21
2023-04-16T10:01:18.789Z,10.20
2023-04-16T10:06:23.504Z,10.31
2023-04-16T10:11:26.379Z,10.47
2023-04-16T10:16:29.893Z,10.55
2023-04-16T10:21:34.274Z,10.53
2023-04-16T10:26:36.862Z,10.52
2023-04-16T10:36:59.441Z,10.64
2023-04-16T10:42:09.195Z,10.74
2023-04-16T10:47:12.874Z,11.38
2023-04-16T10:52:20.239Z,11.86
2023-04-16T10:57:22.017Z,11.93
2023-04-16T11:02:29.235Z,11.99
2023-04-16T11:07:35.192Z,12.17
2023-04-16T11:12:46.424Z,12.58
2023-04-16T11:17:51.771Z,13.35
2023-04-16T11:22:55.685Z,13.59
2023-04-16T11:28:01.193Z,13.83
2023-04-16T11:33:11.411Z,13.93
2023-04-16T11:38:13.249Z,14.07
2023-04-16T11:43:16.722Z,14.49
2023-04-16T11:48:18.504Z,14.67
2023-04-16T11:53:20.271Z,14.99
2023-04-16T11:58:23.438Z,14.99
2023-04-16T12:03:39.660Z,14.76
2023-04-16T12:08:43.194Z,14.63
2023-04-16T12:14:11.574Z,14.54
2023-04-16T12:19:13.659Z,14.38
2023-04-16T12:24:20.917Z,14.57
2023-04-16T12:29:27.962Z,14.34
2023-04-16T12:34:46.658Z,14.47
2023-04-16T12:39:51.278Z,13.92
2023-04-16T12:44:53.216Z,13.66
2023-04-16T12:49:56.890Z,13.90
2023-04-16T12:54:58.674Z,13.77
2023-04-16T13:00:00.493Z,13.71
2023-04-16T13:05:02.678Z,13.66
2023-04-16T13:10:06.322Z,13.90
2023-04-16T13:15:08.833Z,14.29
2023-04-16T13:20:10.995Z,13.99
2023-04-16T13:25:12.774Z,14.07
2023-04-16T13:30:14.838Z,14.18
2023-04-16T13:35:16.590Z,13.70
2023-04-16T13:40:20.974Z,13.71
2023-04-16T13:45:22.800Z,13.77
2023-04-16T13:50:24.618Z,13.91
2023-04-16T13:55:26.552Z,13.47
2023-04-16T14:00:29.164Z,13.54
2023-04-16T14:05:30.945Z,13.89
2023-04-16T14:10:33.226Z,14.09
2023-04-16T14:15:35.188Z,14.45
2023-04-16T14:20:39.775Z,14.31
2023-04-16T14:25:41.618Z,13.95
2023-04-16T14:30:43.402Z,13.46
2023-04-16T14:35:45.177Z,13.40
2023-04-16T14:40:46.902Z,13.32
2023-04-16T14:45:48.776Z,13.34
2023-04-16T14:50:50.707Z,13.19
2023-04-16T14:55:52.612Z,13.17
2023-04-16T15:00:54.471Z,13.15
2023-04-16T15:05:57.080Z,13.26
2023-04-16T15:10:58.845Z,13.21
2023-04-16T15:16:04.972Z,12.98
2023-04-16T15:21:07.414Z,13.04
2023-04-16T15:26:09.220Z,13.37
2023-04-16T15:31:11.505Z,13.34
2023-04-16T15:36:13.534Z,13.35
2023-04-16T15:41:15.683Z,13.55
2023-04-16T15:46:17.629Z,13.47
2023-04-16T15:51:19.490Z,13.42
2023-04-16T15:56:21.421Z,13.28
2023-04-16T16:01:23.188Z,13.35
2023-04-16T16:06:25.031Z,13.07
2023-04-16T16:11:27.694Z,12.98
2023-04-16T16:16:30.875Z,12.82
2023-04-16T16:21:32.785Z,12.71
2023-04-16T16:26:35.023Z,12.66
2023-04-16T16:31:36.963Z,12.69
2023-04-16T16:36:38.921Z,12.58
2023-04-16T16:41:42.425Z,12.32
2023-04-16T16:46:44.270Z,12.07
2023-04-16T16:51:49.415Z,12.12
2023-04-16T16:56:53.081Z,12.00
2023-04-16T17:01:55.021Z,12.06
2023-04-16T17:06:56.811Z,11.99
2023-04-16T17:11:58.550Z,11.98
2023-04-16T17:17:00.655Z,11.97
2023-04-16T17:22:03.303Z,11.96
2023-04-16T17:27:05.062Z,11.82
2023-04-16T17:32:06.965Z,11.82
2023-04-16T17:37:08.720Z,11.82
2023-04-16T17:42:10.462Z,11.76
2023-04-16T17:47:12.291Z,11.72
2023-04-16T17:52:14.121Z,11.71
2023-04-16T17:57:16.572Z,11.59
2023-04-16T18:02:18.979Z,11.51
2023-04-16T18:07:21.017Z,11.44
2023-04-16T18:12:22.740Z,11.38
2023-04-16T18:17:24.547Z,11.19
2023-04-16T18:22:28.305Z,11.18
2023-04-16T18:27:30.167Z,11.12
2023-04-16T18:32:31.978Z,11.15
2023-04-16T18:37:33.748Z,11.13
2023-04-16T18:42:36.436Z,11.05
2023-04-16T18:47:40.033Z,10.96
2023-04-16T18:52:42.009Z,10.80
2023-04-16T18:57:43.816Z,10.70
2023-04-16T19:02:45.834Z,10.61
2023-04-16T19:07:47.857Z,10.60
2023-04-16T19:12:49.768Z,10.65
2023-04-16T19:17:51.533Z,10.63
2023-04-16T19:22:53.465Z,10.60
2023-04-16T19:27:56.566Z,10.66
2023-04-16T19:32:58.530Z,10.71
2023-04-16T19:38:00.744Z,10.76
2023-04-16T19:43:02.487Z,10.75
2023-04-16T19:48:04.472Z,10.80
2023-04-16T19:53:06.412Z,10.83
2023-04-16T19:58:08.936Z,10.79
2023-04-16T20:03:10.973Z,10.68
2023-04-16T20:08:12.777Z,10.60
2023-04-16T20:13:16.053Z,10.58
2023-04-16T20:18:19.547Z,10.57
2023-04-16T20:23:21.456Z,10.57
2023-04-16T20:28:23.243Z,10.46
2023-04-16T20:33:25.179Z,10.43
2023-04-16T20:38:30.149Z,10.37
2023-04-16T20:43:38.610Z,10.31
2023-04-16T20:48:40.556Z,10.20
2023-04-16T20:53:42.385Z,10.19
2023-04-16T20:58:44.349Z,10.17
2023-04-16T21:03:46.598Z,10.23
2023-04-16T21:08:48.435Z,10.20
2023-04-16T21:13:50.234Z,10.19
2023-04-16T21:18:51.950Z,10.28
2023-04-16T21:23:54.482Z,10.29
2023-04-16T21:28:56.221Z,10.22
2023-04-16T21:33:58.257Z,10.22
2023-04-16T21:39:00.218Z,10.16
2023-04-16T21:44:02.027Z,10.16
2023-04-16T21:49:03.908Z,10.07
2023-04-16T21:54:05.800Z,10.10
2023-04-16T21:59:07.616Z,10.12
2023-04-16T22:04:10.042Z,10.12
2023-04-16T22:09:12.090Z,10.07
2023-04-16T22:14:14.638Z,9.97
2023-04-16T22:19:17.769Z,9.95
2023-04-16T22:24:19.852Z,9.95
2023-04-16T22:29:21.621Z,9.92
2023-04-16T22:34:23.365Z,9.71
2023-04-16T22:39:25.102Z,9.56
2023-04-16T22:44:26.898Z,9.56
2023-04-16T22:49:33.186Z,9.54
2023-04-16T22:54:35.055Z,9.50
2023-04-16T22:59:36.767Z,9.46
2023-04-16T23:04:38.542Z,9.45
2023-04-16T23:09:40.529Z,9.45
2023-04-16T23:14:45.919Z,9.43
2023-04-16T23:19:47.746Z,9.40
2023-04-16T23:24:49.508Z,9.25
2023-04-16T23:29:51.235Z,9.17
2023-04-16T23:34:53.211Z,9.18
2023-04-16T23:39:54.986Z,9.20
2023-04-16T23:44:56.762Z,9.20
2023-04-16T23:49:58.567Z,9.15
2023-04-16T23:55:00.423Z,9.09
